sensor_id;sensor_type;location;lat;lon;timestamp;pressure;altitude;pressure_sealevel;temperature;humidity
78431;BME280;67727;50.236;22.452;2023-08-30T00:01:11;98526.52;;;20.33;81.26
78431;BME280;67727;50.236;22.452;2023-08-30T00:03:38;98524.10;;;20.33;81.05
78431;BME280;67727;50.236;22.452;2023-08-30T00:06:06;98525.35;;;20.35;81.22
78431;BME280;67727;50.236;22.452;2023-08-30T00:08:33;98526.59;;;20.36;81.11
78431;BME280;67727;50.236;22.452;2023-08-30T00:11:00;98530.14;;;20.38;81.05
78431;BME280;67727;50.236;22.452;2023-08-30T00:13:32;98531.71;;;20.42;81.08
78431;BME280;67727;50.236;22.452;2023-08-30T00:16:00;98530.27;;;20.45;80.97
78431;BME280;67727;50.236;22.452;2023-08-30T00:18:29;98530.88;;;20.48;80.99
78431;BME280;67727;50.236;22.452;2023-08-30T00:20:55;98528.99;;;20.50;81.03
78431;BME280;67727;50.236;22.452;2023-08-30T00:23:24;98523.77;;;20.50;80.77
78431;BME280;67727;50.236;22.452;2023-08-30T00:25:51;98517.41;;;20.49;81.19
78431;BME280;67727;50.236;22.452;2023-08-30T00:28:18;98510.08;;;20.45;81.16
78431;BME280;67727;50.236;22.452;2023-08-30T00:30:45;98506.52;;;20.44;81.27
78431;BME280;67727;50.236;22.452;2023-08-30T00:33:12;98503.84;;;20.45;81.37
78431;BME280;67727;50.236;22.452;2023-08-30T00:35:38;98498.02;;;20.48;81.56
78431;BME280;67727;50.236;22.452;2023-08-30T00:38:05;98490.91;;;20.51;81.44
78431;BME280;67727;50.236;22.452;2023-08-30T00:40:38;98485.41;;;20.52;81.25
78431;BME280;67727;50.236;22.452;2023-08-30T00:43:07;98472.77;;;20.50;81.04
78431;BME280;67727;50.236;22.452;2023-08-30T00:45:37;98453.83;;;20.51;81.10
78431;BME280;67727;50.236;22.452;2023-08-30T00:48:06;98446.16;;;20.54;81.17
78431;BME280;67727;50.236;22.452;2023-08-30T00:50:34;98443.89;;;20.58;81.23
78431;BME280;67727;50.236;22.452;2023-08-30T00:53:03;98443.91;;;20.60;81.07
78431;BME280;67727;50.236;22.452;2023-08-30T00:55:33;98457.10;;;20.61;80.91
78431;BME280;67727;50.236;22.452;2023-08-30T00:58:01;98477.41;;;20.60;80.81
78431;BME280;67727;50.236;22.452;2023-08-30T01:00:32;98509.39;;;20.62;80.47
78431;BME280;67727;50.236;22.452;2023-08-30T01:02:59;98534.38;;;20.61;80.88
78431;BME280;67727;50.236;22.452;2023-08-30T01:05:26;98547.73;;;20.56;81.21
78431;BME280;67727;50.236;22.452;2023-08-30T01:07:55;98556.71;;;20.48;81.32
78431;BME280;67727;50.236;22.452;2023-08-30T01:10:41;98563.25;;;20.43;81.45
78431;BME280;67727;50.236;22.452;2023-08-30T01:13:15;98564.48;;;20.34;81.88
78431;BME280;67727;50.236;22.452;2023-08-30T01:15:45;98559.37;;;20.27;82.15
78431;BME280;67727;50.236;22.452;2023-08-30T01:18:13;98557.85;;;20.19;82.61
78431;BME280;67727;50.236;22.452;2023-08-30T01:20:41;98564.95;;;20.16;82.77
78431;BME280;67727;50.236;22.452;2023-08-30T01:23:47;98573.48;;;20.13;82.93
78431;BME280;67727;50.236;22.452;2023-08-30T01:27:21;98574.95;;;20.11;82.99
78431;BME280;67727;50.236;22.452;2023-08-30T01:29:22;98575.33;;;20.10;83.07
78431;BME280;67727;50.236;22.452;2023-08-30T01:31:51;98575.16;;;20.10;83.15
78431;BME280;67727;50.236;22.452;2023-08-30T01:34:18;98570.31;;;20.12;83.02
78431;BME280;67727;50.236;22.452;2023-08-30T01:36:46;98565.41;;;20.13;82.98
78431;BME280;67727;50.236;22.452;2023-08-30T01:39:14;98561.50;;;20.16;82.85
78431;BME280;67727;50.236;22.452;2023-08-30T01:41:43;98554.29;;;20.19;82.96
78431;BME280;67727;50.236;22.452;2023-08-30T01:44:11;98545.52;;;20.24;82.86
78431;BME280;67727;50.236;22.452;2023-08-30T01:46:39;98516.56;;;20.25;82.75
78431;BME280;67727;50.236;22.452;2023-08-30T01:49:07;98486.96;;;20.25;82.73
78431;BME280;67727;50.236;22.452;2023-08-30T01:51:35;98454.02;;;20.26;82.73
78431;BME280;67727;50.236;22.452;2023-08-30T01:54:04;98430.23;;;20.26;82.77
78431;BME280;67727;50.236;22.452;2023-08-30T01:56:32;98424.17;;;20.24;82.80
78431;BME280;67727;50.236;22.452;2023-08-30T01:58:59;98430.25;;;20.21;82.87
78431;BME280;67727;50.236;22.452;2023-08-30T02:01:26;98453.02;;;20.21;82.73
78431;BME280;67727;50.236;22.452;2023-08-30T02:03:53;98485.03;;;20.22;82.58
78431;BME280;67727;50.236;22.452;2023-08-30T02:06:40;98503.38;;;20.25;82.62
78431;BME280;67727;50.236;22.452;2023-08-30T02:09:14;98513.22;;;20.26;82.72
78431;BME280;67727;50.236;22.452;2023-08-30T02:11:45;98522.59;;;20.26;82.66
78431;BME280;67727;50.236;22.452;2023-08-30T02:14:13;98522.97;;;20.27;82.71
78431;BME280;67727;50.236;22.452;2023-08-30T02:16:46;98515.99;;;20.28;82.53
78431;BME280;67727;50.236;22.452;2023-08-30T02:19:14;98520.19;;;20.30;82.57
78431;BME280;67727;50.236;22.452;2023-08-30T02:21:47;98510.16;;;20.32;82.40
78431;BME280;67727;50.236;22.452;2023-08-30T02:24:14;98502.41;;;20.32;82.34
78431;BME280;67727;50.236;22.452;2023-08-30T02:26:41;98495.48;;;20.31;82.28
78431;BME280;67727;50.236;22.452;2023-08-30T02:29:08;98473.25;;;20.30;82.23
78431;BME280;67727;50.236;22.452;2023-08-30T02:31:36;98453.88;;;20.28;82.47
78431;BME280;67727;50.236;22.452;2023-08-30T02:34:03;98444.62;;;20.21;82.63
78431;BME280;67727;50.236;22.452;2023-08-30T02:36:30;98459.80;;;20.15;82.64
78431;BME280;67727;50.236;22.452;2023-08-30T02:38:57;98484.40;;;20.15;82.73
78431;BME280;67727;50.236;22.452;2023-08-30T02:41:24;98510.81;;;20.15;82.75
78431;BME280;67727;50.236;22.452;2023-08-30T02:43:50;98518.55;;;20.13;83.03
78431;BME280;67727;50.236;22.452;2023-08-30T02:46:17;98515.74;;;20.13;83.02
78431;BME280;67727;50.236;22.452;2023-08-30T02:48:44;98520.21;;;20.13;83.13
78431;BME280;67727;50.236;22.452;2023-08-30T02:51:11;98532.94;;;20.14;82.99
78431;BME280;67727;50.236;22.452;2023-08-30T02:53:38;98539.29;;;20.15;83.15
78431;BME280;67727;50.236;22.452;2023-08-30T02:56:04;98546.38;;;20.13;83.24
78431;BME280;67727;50.236;22.452;2023-08-30T02:58:31;98547.29;;;20.12;83.27
78431;BME280;67727;50.236;22.452;2023-08-30T03:01:00;98551.81;;;20.13;83.27
78431;BME280;67727;50.236;22.452;2023-08-30T03:03:27;98559.17;;;20.12;83.52
78431;BME280;67727;50.236;22.452;2023-08-30T03:05:54;98554.77;;;20.10;83.42
78431;BME280;67727;50.236;22.452;2023-08-30T03:08:21;98558.31;;;20.11;83.52
78431;BME280;67727;50.236;22.452;2023-08-30T03:10:47;98563.48;;;20.12;83.69
78431;BME280;67727;50.236;22.452;2023-08-30T03:13:14;98572.46;;;20.13;83.68
78431;BME280;67727;50.236;22.452;2023-08-30T03:15:41;98574.52;;;20.11;83.89
78431;BME280;67727;50.236;22.452;2023-08-30T03:18:08;98569.52;;;20.08;83.95
78431;BME280;67727;50.236;22.452;2023-08-30T03:20:34;98566.02;;;20.08;83.76
78431;BME280;67727;50.236;22.452;2023-08-30T03:23:01;98560.74;;;20.10;83.60
78431;BME280;67727;50.236;22.452;2023-08-30T03:25:29;98565.04;;;20.12;83.69
78431;BME280;67727;50.236;22.452;2023-08-30T03:27:56;98567.02;;;20.13;83.70
78431;BME280;67727;50.236;22.452;2023-08-30T03:30:23;98574.36;;;20.14;83.74
78431;BME280;67727;50.236;22.452;2023-08-30T03:32:50;98577.55;;;20.14;83.98
78431;BME280;67727;50.236;22.452;2023-08-30T03:35:17;98579.15;;;20.15;83.97
78431;BME280;67727;50.236;22.452;2023-08-30T03:37:44;98585.40;;;20.17;83.88
78431;BME280;67727;50.236;22.452;2023-08-30T03:40:11;98586.68;;;20.18;83.96
78431;BME280;67727;50.236;22.452;2023-08-30T03:42:38;98591.85;;;20.19;83.85
78431;BME280;67727;50.236;22.452;2023-08-30T03:45:05;98586.48;;;20.21;83.86
78431;BME280;67727;50.236;22.452;2023-08-30T03:47:32;98587.62;;;20.22;83.83
78431;BME280;67727;50.236;22.452;2023-08-30T03:49:59;98590.41;;;20.26;83.79
78431;BME280;67727;50.236;22.452;2023-08-30T03:52:26;98586.65;;;20.27;83.72
78431;BME280;67727;50.236;22.452;2023-08-30T03:54:53;98587.89;;;20.27;83.76
78431;BME280;67727;50.236;22.452;2023-08-30T03:57:19;98582.01;;;20.27;83.67
78431;BME280;67727;50.236;22.452;2023-08-30T03:59:46;98575.98;;;20.26;83.83
78431;BME280;67727;50.236;22.452;2023-08-30T04:02:13;98564.09;;;20.24;83.67
78431;BME280;67727;50.236;22.452;2023-08-30T04:04:40;98555.80;;;20.25;83.64
78431;BME280;67727;50.236;22.452;2023-08-30T04:07:07;98551.92;;;20.26;83.54
78431;BME280;67727;50.236;22.452;2023-08-30T04:09:33;98549.08;;;20.27;83.50
78431;BME280;67727;50.236;22.452;2023-08-30T04:12:00;98547.10;;;20.27;83.40
78431;BME280;67727;50.236;22.452;2023-08-30T04:14:27;98546.08;;;20.28;83.37
78431;BME280;67727;50.236;22.452;2023-08-30T04:16:54;98553.55;;;20.31;83.29
78431;BME280;67727;50.236;22.452;2023-08-30T04:19:21;98564.70;;;20.34;83.27
78431;BME280;67727;50.236;22.452;2023-08-30T04:21:48;98567.27;;;20.33;83.21
78431;BME280;67727;50.236;22.452;2023-08-30T04:24:15;98573.47;;;20.31;83.16
78431;BME280;67727;50.236;22.452;2023-08-30T04:26:42;98571.52;;;20.32;83.21
78431;BME280;67727;50.236;22.452;2023-08-30T04:29:09;98573.80;;;20.33;83.26
78431;BME280;67727;50.236;22.452;2023-08-30T04:31:35;98572.08;;;20.36;83.38
78431;BME280;67727;50.236;22.452;2023-08-30T04:34:02;98564.00;;;20.37;83.29
78431;BME280;67727;50.236;22.452;2023-08-30T04:36:29;98567.71;;;20.39;83.29
78431;BME280;67727;50.236;22.452;2023-08-30T04:38:56;98562.98;;;20.42;83.12
78431;BME280;67727;50.236;22.452;2023-08-30T04:41:23;98562.40;;;20.44;83.11
78431;BME280;67727;50.236;22.452;2023-08-30T04:43:49;98558.38;;;20.45;82.97
78431;BME280;67727;50.236;22.452;2023-08-30T04:46:16;98560.05;;;20.47;82.94
78431;BME280;67727;50.236;22.452;2023-08-30T04:48:43;98557.05;;;20.49;82.84
78431;BME280;67727;50.236;22.452;2023-08-30T04:51:10;98552.13;;;20.46;82.73
78431;BME280;67727;50.236;22.452;2023-08-30T04:53:37;98544.32;;;20.45;82.81
78431;BME280;67727;50.236;22.452;2023-08-30T04:56:13;98549.79;;;20.48;82.85
78431;BME280;67727;50.236;22.452;2023-08-30T04:58:41;98549.60;;;20.52;82.76
78431;BME280;67727;50.236;22.452;2023-08-30T05:01:07;98549.03;;;20.54;82.56
78431;BME280;67727;50.236;22.452;2023-08-30T05:03:35;98556.40;;;20.57;82.67
78431;BME280;67727;50.236;22.452;2023-08-30T05:06:02;98568.46;;;20.61;82.66
78431;BME280;67727;50.236;22.452;2023-08-30T05:08:29;98567.44;;;20.63;82.47
78431;BME280;67727;50.236;22.452;2023-08-30T05:10:56;98571.10;;;20.63;82.49
78431;BME280;67727;50.236;22.452;2023-08-30T05:13:23;98573.41;;;20.59;82.52
78431;BME280;67727;50.236;22.452;2023-08-30T05:15:50;98572.81;;;20.58;82.74
78431;BME280;67727;50.236;22.452;2023-08-30T05:18:19;98568.77;;;20.58;82.72
78431;BME280;67727;50.236;22.452;2023-08-30T05:20:46;98567.82;;;20.61;82.70
78431;BME280;67727;50.236;22.452;2023-08-30T05:23:13;98567.37;;;20.64;82.75
78431;BME280;67727;50.236;22.452;2023-08-30T05:25:39;98569.55;;;20.68;82.57
78431;BME280;67727;50.236;22.452;2023-08-30T05:28:06;98570.66;;;20.70;82.50
78431;BME280;67727;50.236;22.452;2023-08-30T05:30:33;98565.70;;;20.72;82.35
78431;BME280;67727;50.236;22.452;2023-08-30T05:33:00;98563.48;;;20.73;82.30
78431;BME280;67727;50.236;22.452;2023-08-30T05:35:27;98566.63;;;20.75;82.27
78431;BME280;67727;50.236;22.452;2023-08-30T05:37:54;98568.77;;;20.76;82.25
78431;BME280;67727;50.236;22.452;2023-08-30T05:40:20;98569.89;;;20.72;82.21
78431;BME280;67727;50.236;22.452;2023-08-30T05:42:47;98573.73;;;20.71;82.13
78431;BME280;67727;50.236;22.452;2023-08-30T05:45:14;98574.91;;;20.72;82.20
78431;BME280;67727;50.236;22.452;2023-08-30T05:47:41;98576.85;;;20.73;82.16
78431;BME280;67727;50.236;22.452;2023-08-30T05:50:08;98572.76;;;20.73;82.12
78431;BME280;67727;50.236;22.452;2023-08-30T05:52:35;98573.52;;;20.74;82.08
78431;BME280;67727;50.236;22.452;2023-08-30T05:55:02;98570.73;;;20.75;82.17
78431;BME280;67727;50.236;22.452;2023-08-30T05:57:29;98565.77;;;20.76;82.07
78431;BME280;67727;50.236;22.452;2023-08-30T06:00:00;98565.27;;;20.78;81.99
78431;BME280;67727;50.236;22.452;2023-08-30T06:02:27;98570.56;;;20.81;81.87
78431;BME280;67727;50.236;22.452;2023-08-30T06:04:54;98571.89;;;20.83;81.68
78431;BME280;67727;50.236;22.452;2023-08-30T06:07:21;98574.37;;;20.87;81.80
78431;BME280;67727;50.236;22.452;2023-08-30T06:09:48;98577.88;;;20.94;81.77
78431;BME280;67727;50.236;22.452;2023-08-30T06:12:14;98578.30;;;20.99;81.68
78431;BME280;67727;50.236;22.452;2023-08-30T06:14:42;98577.61;;;21.00;81.60
78431;BME280;67727;50.236;22.452;2023-08-30T06:17:09;98582.60;;;21.02;81.63
78431;BME280;67727;50.236;22.452;2023-08-30T06:19:35;98586.95;;;21.06;81.65
78431;BME280;67727;50.236;22.452;2023-08-30T06:22:03;98588.47;;;21.08;81.08
78431;BME280;67727;50.236;22.452;2023-08-30T06:24:29;98587.13;;;21.08;81.16
78431;BME280;67727;50.236;22.452;2023-08-30T06:26:56;98584.43;;;21.07;81.09
78431;BME280;67727;50.236;22.452;2023-08-30T06:29:23;98586.52;;;21.07;81.11
78431;BME280;67727;50.236;22.452;2023-08-30T06:31:50;98589.39;;;21.06;81.04
78431;BME280;67727;50.236;22.452;2023-08-30T06:34:17;98592.66;;;21.06;81.02
78431;BME280;67727;50.236;22.452;2023-08-30T06:36:45;98596.73;;;21.07;80.92
78431;BME280;67727;50.236;22.452;2023-08-30T06:39:11;98596.72;;;21.06;80.84
78431;BME280;67727;50.236;22.452;2023-08-30T06:41:39;98600.17;;;21.06;80.73
78431;BME280;67727;50.236;22.452;2023-08-30T06:44:15;98604.14;;;21.06;80.50
78431;BME280;67727;50.236;22.452;2023-08-30T06:46:43;98604.36;;;21.06;80.58
78431;BME280;67727;50.236;22.452;2023-08-30T06:49:10;98603.98;;;21.06;80.65
78431;BME280;67727;50.236;22.452;2023-08-30T06:51:37;98603.17;;;21.08;80.52
78431;BME280;67727;50.236;22.452;2023-08-30T06:54:04;98599.12;;;21.11;80.64
78431;BME280;67727;50.236;22.452;2023-08-30T06:56:31;98597.62;;;21.15;80.46
78431;BME280;67727;50.236;22.452;2023-08-30T06:58:58;98593.30;;;21.17;80.51
78431;BME280;67727;50.236;22.452;2023-08-30T07:01:25;98589.04;;;21.19;80.43
78431;BME280;67727;50.236;22.452;2023-08-30T07:03:52;98588.48;;;21.22;80.13
78431;BME280;67727;50.236;22.452;2023-08-30T07:06:19;98587.14;;;21.25;80.17
78431;BME280;67727;50.236;22.452;2023-08-30T07:08:45;98582.46;;;21.28;79.61
78431;BME280;67727;50.236;22.452;2023-08-30T07:11:12;98584.61;;;21.32;79.86
78431;BME280;67727;50.236;22.452;2023-08-30T07:13:39;98585.56;;;21.38;79.61
78431;BME280;67727;50.236;22.452;2023-08-30T07:16:06;98586.79;;;21.44;79.63
78431;BME280;67727;50.236;22.452;2023-08-30T07:18:33;98588.21;;;21.53;79.74
78431;BME280;67727;50.236;22.452;2023-08-30T07:20:59;98586.77;;;21.62;79.46
78431;BME280;67727;50.236;22.452;2023-08-30T07:23:26;98583.67;;;21.70;79.12
78431;BME280;67727;50.236;22.452;2023-08-30T07:25:53;98581.10;;;21.79;78.82
78431;BME280;67727;50.236;22.452;2023-08-30T07:28:20;98585.80;;;21.86;78.23
78431;BME280;67727;50.236;22.452;2023-08-30T07:30:47;98581.45;;;21.95;78.23
78431;BME280;67727;50.236;22.452;2023-08-30T07:33:14;98584.04;;;22.07;78.06
78431;BME280;67727;50.236;22.452;2023-08-30T07:35:41;98584.31;;;22.19;77.73
78431;BME280;67727;50.236;22.452;2023-08-30T07:38:07;98584.27;;;22.34;77.03
78431;BME280;67727;50.236;22.452;2023-08-30T07:40:34;98586.11;;;22.47;76.69
78431;BME280;67727;50.236;22.452;2023-08-30T07:43:01;98584.36;;;22.59;75.88
78431;BME280;67727;50.236;22.452;2023-08-30T07:45:28;98586.45;;;22.69;75.53
78431;BME280;67727;50.236;22.452;2023-08-30T07:47:55;98583.98;;;22.77;74.14
78431;BME280;67727;50.236;22.452;2023-08-30T07:50:22;98584.48;;;22.84;73.21
78431;BME280;67727;50.236;22.452;2023-08-30T07:52:49;98585.42;;;22.89;74.01
78431;BME280;67727;50.236;22.452;2023-08-30T07:55:16;98584.77;;;22.96;74.07
78431;BME280;67727;50.236;22.452;2023-08-30T07:57:43;98586.85;;;23.04;73.67
78431;BME280;67727;50.236;22.452;2023-08-30T08:00:10;98587.98;;;23.10;72.86
78431;BME280;67727;50.236;22.452;2023-08-30T08:02:37;98589.88;;;23.15;72.58
78431;BME280;67727;50.236;22.452;2023-08-30T08:05:04;98587.23;;;23.21;72.96
78431;BME280;67727;50.236;22.452;2023-08-30T08:07:31;98586.89;;;23.32;72.90
78431;BME280;67727;50.236;22.452;2023-08-30T08:09:58;98579.95;;;23.44;72.51
78431;BME280;67727;50.236;22.452;2023-08-30T08:12:26;98574.23;;;23.56;72.51
78431;BME280;67727;50.236;22.452;2023-08-30T08:14:52;98573.19;;;23.65;71.60
78431;BME280;67727;50.236;22.452;2023-08-30T08:17:19;98566.17;;;23.72;71.19
78431;BME280;67727;50.236;22.452;2023-08-30T08:19:46;98562.29;;;23.75;70.73
78431;BME280;67727;50.236;22.452;2023-08-30T08:22:13;98565.77;;;23.77;70.68
78431;BME280;67727;50.236;22.452;2023-08-30T08:24:40;98562.48;;;23.80;70.59
78431;BME280;67727;50.236;22.452;2023-08-30T08:27:06;98558.72;;;23.87;70.36
78431;BME280;67727;50.236;22.452;2023-08-30T08:29:33;98556.28;;;23.99;70.92
78431;BME280;67727;50.236;22.452;2023-08-30T08:32:00;98554.92;;;24.10;70.21
78431;BME280;67727;50.236;22.452;2023-08-30T08:34:27;98556.80;;;24.19;69.79
78431;BME280;67727;50.236;22.452;2023-08-30T08:36:54;98554.79;;;24.24;68.63
78431;BME280;67727;50.236;22.452;2023-08-30T08:39:20;98555.27;;;24.25;68.67
78431;BME280;67727;50.236;22.452;2023-08-30T08:41:47;98560.59;;;24.24;67.57
78431;BME280;67727;50.236;22.452;2023-08-30T08:44:15;98561.07;;;24.16;67.60
78431;BME280;67727;50.236;22.452;2023-08-30T08:46:43;98555.23;;;24.08;67.23
78431;BME280;67727;50.236;22.452;2023-08-30T08:49:12;98556.88;;;24.03;67.59
78431;BME280;67727;50.236;22.452;2023-08-30T08:51:41;98557.36;;;24.02;67.97
78431;BME280;67727;50.236;22.452;2023-08-30T08:54:09;98558.60;;;24.03;67.70
78431;BME280;67727;50.236;22.452;2023-08-30T08:56:37;98564.82;;;24.03;67.17
78431;BME280;67727;50.236;22.452;2023-08-30T08:59:05;98564.36;;;24.05;67.63
78431;BME280;67727;50.236;22.452;2023-08-30T09:01:35;98569.59;;;24.11;68.47
78431;BME280;67727;50.236;22.452;2023-08-30T09:04:06;98572.58;;;24.19;67.69
78431;BME280;67727;50.236;22.452;2023-08-30T09:06:37;98576.83;;;24.20;67.13
78431;BME280;67727;50.236;22.452;2023-08-30T09:09:07;98581.23;;;24.20;66.38
78431;BME280;67727;50.236;22.452;2023-08-30T09:11:35;98583.98;;;24.16;66.22
78431;BME280;67727;50.236;22.452;2023-08-30T09:14:02;98578.19;;;24.15;66.77
78431;BME280;67727;50.236;22.452;2023-08-30T09:16:29;98580.02;;;24.17;66.96
78431;BME280;67727;50.236;22.452;2023-08-30T09:18:59;98581.23;;;24.19;66.80
78431;BME280;67727;50.236;22.452;2023-08-30T09:21:27;98581.67;;;24.22;66.01
78431;BME280;67727;50.236;22.452;2023-08-30T09:24:12;98581.33;;;24.24;65.85
78431;BME280;67727;50.236;22.452;2023-08-30T09:26:47;98582.81;;;24.26;65.31
78431;BME280;67727;50.236;22.452;2023-08-30T09:29:14;98586.98;;;24.30;65.91
78431;BME280;67727;50.236;22.452;2023-08-30T09:31:43;98587.05;;;24.33;65.62
78431;BME280;67727;50.236;22.452;2023-08-30T09:34:10;98590.93;;;24.36;65.43
78431;BME280;67727;50.236;22.452;2023-08-30T09:36:41;98595.91;;;24.37;65.48
78431;BME280;67727;50.236;22.452;2023-08-30T09:39:10;98598.43;;;24.41;65.57
78431;BME280;67727;50.236;22.452;2023-08-30T09:41:42;98600.71;;;24.45;65.52
78431;BME280;67727;50.236;22.452;2023-08-30T09:44:18;98606.38;;;24.54;65.47
78431;BME280;67727;50.236;22.452;2023-08-30T09:46:53;98604.87;;;24.73;65.68
78431;BME280;67727;50.236;22.452;2023-08-30T09:49:24;98609.05;;;25.06;65.90
78431;BME280;67727;50.236;22.452;2023-08-30T09:51:53;98610.35;;;25.45;65.53
78431;BME280;67727;50.236;22.452;2023-08-30T09:54:22;98611.36;;;25.65;63.33
78431;BME280;67727;50.236;22.452;2023-08-30T09:56:49;98617.95;;;25.74;63.10
78431;BME280;67727;50.236;22.452;2023-08-30T09:59:19;98623.22;;;25.73;62.15
78431;BME280;67727;50.236;22.452;2023-08-30T10:01:47;98621.89;;;25.64;60.94
78431;BME280;67727;50.236;22.452;2023-08-30T10:04:19;98616.82;;;25.48;61.50
78431;BME280;67727;50.236;22.452;2023-08-30T10:06:47;98614.14;;;25.37;62.75
78431;BME280;67727;50.236;22.452;2023-08-30T10:09:15;98611.33;;;25.27;62.62
78431;BME280;67727;50.236;22.452;2023-08-30T10:11:44;98613.11;;;25.13;62.05
78431;BME280;67727;50.236;22.452;2023-08-30T10:14:12;98612.10;;;24.98;61.81
78431;BME280;67727;50.236;22.452;2023-08-30T10:16:46;98617.75;;;24.81;62.14
78431;BME280;67727;50.236;22.452;2023-08-30T10:19:23;98622.29;;;24.65;63.04
78431;BME280;67727;50.236;22.452;2023-08-30T10:22:01;98621.30;;;24.51;63.18
78431;BME280;67727;50.236;22.452;2023-08-30T10:24:35;98622.02;;;24.40;63.25
78431;BME280;67727;50.236;22.452;2023-08-30T10:27:04;98624.23;;;24.31;63.78
78431;BME280;67727;50.236;22.452;2023-08-30T10:29:35;98623.40;;;24.21;64.21
78431;BME280;67727;50.236;22.452;2023-08-30T10:32:06;98622.29;;;24.14;63.92
78431;BME280;67727;50.236;22.452;2023-08-30T10:34:35;98618.84;;;24.09;64.13
78431;BME280;67727;50.236;22.452;2023-08-30T10:37:06;98617.20;;;24.07;64.36
78431;BME280;67727;50.236;22.452;2023-08-30T10:42:08;98612.42;;;24.07;64.70
78431;BME280;67727;50.236;22.452;2023-08-30T10:44:47;98603.84;;;24.09;64.56
78431;BME280;67727;50.236;22.452;2023-08-30T10:47:38;98597.34;;;24.17;65.13
78431;BME280;67727;50.236;22.452;2023-08-30T10:50:11;98596.80;;;24.34;65.05
78431;BME280;67727;50.236;22.452;2023-08-30T10:52:39;98592.63;;;24.52;64.80
78431;BME280;67727;50.236;22.452;2023-08-30T10:55:07;98590.24;;;24.69;64.27
78431;BME280;67727;50.236;22.452;2023-08-30T10:57:35;98590.98;;;24.87;64.09
78431;BME280;67727;50.236;22.452;2023-08-30T11:02:51;98588.70;;;25.13;62.44
78431;BME280;67727;50.236;22.452;2023-08-30T11:05:23;98587.98;;;25.28;62.69
78431;BME280;67727;50.236;22.452;2023-08-30T11:07:50;98585.59;;;25.46;61.61
78431;BME280;67727;50.236;22.452;2023-08-30T11:10:18;98589.31;;;25.55;61.71
78431;BME280;67727;50.236;22.452;2023-08-30T11:12:47;98591.13;;;25.63;61.20
78431;BME280;67727;50.236;22.452;2023-08-30T11:15:16;98590.59;;;25.67;61.16
78431;BME280;67727;50.236;22.452;2023-08-30T11:17:43;98594.36;;;25.78;61.25
78431;BME280;67727;50.236;22.452;2023-08-30T11:20:14;98589.34;;;25.98;61.14
78431;BME280;67727;50.236;22.452;2023-08-30T11:22:43;98582.72;;;26.14;60.16
78431;BME280;67727;50.236;22.452;2023-08-30T11:25:12;98572.77;;;26.29;60.91
78431;BME280;67727;50.236;22.452;2023-08-30T11:27:40;98574.69;;;26.41;60.07
78431;BME280;67727;50.236;22.452;2023-08-30T11:30:08;98573.64;;;26.44;59.83
78431;BME280;67727;50.236;22.452;2023-08-30T11:32:36;98569.55;;;26.47;59.19
78431;BME280;67727;50.236;22.452;2023-08-30T11:35:05;98571.40;;;26.45;58.77
78431;BME280;67727;50.236;22.452;2023-08-30T11:37:32;98567.27;;;26.45;59.10
78431;BME280;67727;50.236;22.452;2023-08-30T11:40:04;98565.48;;;26.43;58.70
78431;BME280;67727;50.236;22.452;2023-08-30T11:42:32;98566.98;;;26.41;59.02
78431;BME280;67727;50.236;22.452;2023-08-30T11:45:00;98564.46;;;26.31;58.50
78431;BME280;67727;50.236;22.452;2023-08-30T11:47:27;98564.61;;;26.29;59.37
78431;BME280;67727;50.236;22.452;2023-08-30T11:49:54;98558.75;;;26.26;58.46
78431;BME280;67727;50.236;22.452;2023-08-30T11:52:25;98557.45;;;26.19;59.20
78431;BME280;67727;50.236;22.452;2023-08-30T11:54:53;98551.75;;;26.14;58.98
78431;BME280;67727;50.236;22.452;2023-08-30T11:57:20;98555.72;;;26.12;59.13
78431;BME280;67727;50.236;22.452;2023-08-30T11:59:48;98561.10;;;26.16;59.40
78431;BME280;67727;50.236;22.452;2023-08-30T12:02:17;98567.23;;;26.29;59.62
78431;BME280;67727;50.236;22.452;2023-08-30T12:04:46;98564.91;;;26.45;59.97
78431;BME280;67727;50.236;22.452;2023-08-30T12:07:26;98566.20;;;26.61;59.23
78431;BME280;67727;50.236;22.452;2023-08-30T12:10:10;98561.45;;;26.70;58.98
78431;BME280;67727;50.236;22.452;2023-08-30T12:12:38;98561.41;;;26.71;58.20
78431;BME280;67727;50.236;22.452;2023-08-30T12:15:11;98559.72;;;26.71;58.27
78431;BME280;67727;50.236;22.452;2023-08-30T12:17:38;98557.98;;;26.69;57.56
78431;BME280;67727;50.236;22.452;2023-08-30T12:20:05;98556.19;;;26.64;57.31
78431;BME280;67727;50.236;22.452;2023-08-30T12:22:39;98556.81;;;26.61;57.43
78431;BME280;67727;50.236;22.452;2023-08-30T12:25:16;98548.98;;;26.57;57.20
78431;BME280;67727;50.236;22.452;2023-08-30T12:27:44;98546.67;;;26.56;57.84
78431;BME280;67727;50.236;22.452;2023-08-30T12:30:15;98544.17;;;26.60;58.37
78431;BME280;67727;50.236;22.452;2023-08-30T12:32:46;98540.99;;;26.65;57.42
78431;BME280;67727;50.236;22.452;2023-08-30T12:35:14;98540.82;;;26.66;57.03
78431;BME280;67727;50.236;22.452;2023-08-30T12:37:41;98535.21;;;26.55;56.97
78431;BME280;67727;50.236;22.452;2023-08-30T12:40:08;98533.75;;;26.46;57.11
78431;BME280;67727;50.236;22.452;2023-08-30T12:42:36;98527.13;;;26.38;57.51
78431;BME280;67727;50.236;22.452;2023-08-30T12:45:03;98524.27;;;26.33;57.31
78431;BME280;67727;50.236;22.452;2023-08-30T12:47:30;98524.27;;;26.40;58.24
78431;BME280;67727;50.236;22.452;2023-08-30T12:49:57;98524.05;;;26.49;58.25
78431;BME280;67727;50.236;22.452;2023-08-30T12:52:23;98515.46;;;26.62;58.43
78431;BME280;67727;50.236;22.452;2023-08-30T12:54:50;98509.15;;;26.71;58.03
78431;BME280;67727;50.236;22.452;2023-08-30T12:57:18;98498.52;;;26.80;57.38
78431;BME280;67727;50.236;22.452;2023-08-30T12:59:45;98495.69;;;26.86;57.05
78431;BME280;67727;50.236;22.452;2023-08-30T13:02:12;98494.25;;;26.90;57.39